createdAt,value
2018-07-20T00:00:07.382Z,50.27
2018-07-20T00:01:17.766Z,50.18
2018-07-20T00:02:27.920Z,50.37
2018-07-20T00:03:38.070Z,50.27
2018-07-20T00:04:48.243Z,50.09
2018-07-20T00:05:58.365Z,50.66
2018-07-20T00:07:08.531Z,50.37
2018-07-20T00:08:19.759Z,50.57
2018-07-20T00:09:29.901Z,50.57
2018-07-20T00:10:40.060Z,51.05
2018-07-20T00:11:50.173Z,51.24
2018-07-20T00:13:00.297Z,51.05
2018-07-20T00:14:10.187Z,51.05
2018-07-20T00:15:20.387Z,50.76
2018-07-20T00:16:30.276Z,51.05
2018-07-20T00:17:40.429Z,51.24
2018-07-20T00:18:50.585Z,51.24
2018-07-20T00:20:00.582Z,51.24
2018-07-20T00:21:10.788Z,51.43
2018-07-20T00:22:20.987Z,51.72
2018-07-20T00:23:32.415Z,51.53
2018-07-20T00:24:42.572Z,51.62
2018-07-20T00:25:52.695Z,51.62
2018-07-20T00:27:02.898Z,51.82
2018-07-20T00:28:13.036Z,51.62
2018-07-20T00:29:23.235Z,52.18
2018-07-20T00:30:33.462Z,52.47
2018-07-20T00:31:44.692Z,52.75
2018-07-20T00:32:54.873Z,52.75
2018-07-20T00:34:05.059Z,52.66
2018-07-20T00:35:14.940Z,52.85
2018-07-20T00:36:25.094Z,52.85
2018-07-20T00:37:35.323Z,52.66
2018-07-20T00:38:45.492Z,52.92
2018-07-20T00:39:55.809Z,53.02
2018-07-20T00:41:05.948Z,53.4
2018-07-20T00:42:15.733Z,53.5
2018-07-20T00:43:25.962Z,53.59
2018-07-20T00:44:36.242Z,54.08
2018-07-20T00:45:46.452Z,54.17
2018-07-20T00:46:56.668Z,54.36
2018-07-20T00:48:06.847Z,54.65
2018-07-20T00:49:16.730Z,54.27
2018-07-20T00:50:26.850Z,54.53
2018-07-20T00:51:37.034Z,54.63
2018-07-20T00:52:47.191Z,54.82
2018-07-20T00:53:57.435Z,54.24
2018-07-20T00:55:07.580Z,54.63
2018-07-20T00:56:17.812Z,54.63
2018-07-20T00:57:28.053Z,54.53
2018-07-20T00:58:38.170Z,55.01
2018-07-20T00:59:48.295Z,54.43
2018-07-20T01:00:58.430Z,54.63
2018-07-20T01:02:08.590Z,55.01
2018-07-20T01:03:18.765Z,54.63
2018-07-20T01:04:28.944Z,54.63
2018-07-20T01:05:38.866Z,54.63
2018-07-20T01:06:49.048Z,54.63
2018-07-20T01:07:59.177Z,54.82
2018-07-20T01:09:09.010Z,55.01
2018-07-20T01:10:19.169Z,55.01
2018-07-20T01:11:29.513Z,54.82
2018-07-20T01:12:39.633Z,55.11
2018-07-20T01:13:49.764Z,55.2
2018-07-20T01:14:59.945Z,55.2
2018-07-20T01:16:10.214Z,55.2
2018-07-20T01:17:20.108Z,55.27
2018-07-20T01:18:30.235Z,55.3
2018-07-20T01:19:40.561Z,54.89
2018-07-20T01:20:50.755Z,55.01
2018-07-20T01:22:00.903Z,55.01
2018-07-20T01:23:11.071Z,55.46
2018-07-20T01:24:21.257Z,55.18
2018-07-20T01:25:31.499Z,55.27
2018-07-20T01:26:41.723Z,55.18
2018-07-20T01:27:52.849Z,54.69
2018-07-20T01:29:03.459Z,55.18
2018-07-20T01:30:13.609Z,54.79
2018-07-20T01:31:23.736Z,55.27
2018-07-20T01:32:33.916Z,54.99
2018-07-20T01:33:44.036Z,54.99
2018-07-20T01:34:54.217Z,55.27
2018-07-20T01:36:04.368Z,55.37
2018-07-20T01:37:14.510Z,55.46
2018-07-20T01:38:24.645Z,55.56
2018-07-20T01:39:34.617Z,55.66
2018-07-20T01:40:44.889Z,55.85
2018-07-20T01:41:55.105Z,55.66
2018-07-20T01:43:05.255Z,55.46
2018-07-20T01:44:15.508Z,55.56
2018-07-20T01:45:25.702Z,55.56
2018-07-20T01:46:36.003Z,55.46
2018-07-20T01:47:46.154Z,55.56
2018-07-20T01:48:56.454Z,55.66
2018-07-20T01:50:06.713Z,55.46
2018-07-20T01:51:16.932Z,55.46
2018-07-20T01:52:27.142Z,55.76
2018-07-20T01:53:37.291Z,55.76
2018-07-20T01:54:47.440Z,55.56
2018-07-20T01:55:57.716Z,55.66
2018-07-20T01:57:09.011Z,55.46
2018-07-20T01:58:19.368Z,55.76
2018-07-20T01:59:29.501Z,55.85
2018-07-20T02:00:39.706Z,55.85
2018-07-20T02:01:49.876Z,55.94
2018-07-20T02:03:00.026Z,55.94
2018-07-20T02:04:10.191Z,55.76
2018-07-20T02:05:20.065Z,55.94
2018-07-20T02:06:30.216Z,56.04
2018-07-20T02:07:40.357Z,56.33
2018-07-20T02:08:50.485Z,56.23
2018-07-20T02:10:00.862Z,56.33
2018-07-20T02:11:11.194Z,56.14
2018-07-20T02:12:21.375Z,56.33
2018-07-20T02:13:31.578Z,56.43
2018-07-20T02:14:41.525Z,56.81
2018-07-20T02:15:51.651Z,56.43
2018-07-20T02:17:01.579Z,56.62
2018-07-20T02:18:11.698Z,56.91
2018-07-20T02:19:21.825Z,56.91
2018-07-20T02:20:31.982Z,57.39
2018-07-20T02:21:41.763Z,56.52
2018-07-20T02:22:51.928Z,56.91
2018-07-20T02:24:02.179Z,56.71
2018-07-20T02:25:12.362Z,56.81
2018-07-20T02:26:22.576Z,56.91
2018-07-20T02:27:32.807Z,56.91
2018-07-20T02:28:42.684Z,56.91
2018-07-20T02:29:52.810Z,57
2018-07-20T02:31:02.688Z,56.81
2018-07-20T02:32:12.737Z,56.43
2018-07-20T02:33:22.640Z,56.43
2018-07-20T02:34:32.780Z,56.52
2018-07-20T02:35:42.921Z,56.62
2018-07-20T02:36:52.858Z,56.52
2018-07-20T02:38:03.009Z,56.52
2018-07-20T02:39:13.143Z,56.52
2018-07-20T02:40:23.278Z,56.52
2018-07-20T02:41:33.431Z,56.91
2018-07-20T02:42:43.213Z,57.2
2018-07-20T02:43:53.444Z,57.48
2018-07-20T02:45:03.670Z,57.45
2018-07-20T02:46:13.829Z,57.55
2018-07-20T02:47:23.700Z,57.26
2018-07-20T02:48:33.843Z,57.26
2018-07-20T02:49:44.115Z,57.45
2018-07-20T02:50:54.371Z,57.55
2018-07-20T02:52:04.585Z,57.55
2018-07-20T02:53:14.800Z,57.45
2018-07-20T02:54:24.676Z,57.14
2018-07-20T02:55:35.800Z,57.36
2018-07-20T02:56:46.471Z,57.36
2018-07-20T02:57:56.630Z,57.33
2018-07-20T02:59:06.528Z,57.33
2018-07-20T03:00:16.766Z,57.23
2018-07-20T03:01:27.092Z,57.9
2018-07-20T03:02:36.863Z,57.9
2018-07-20T03:03:46.949Z,58
2018-07-20T03:04:57.104Z,58.2
2018-07-20T03:06:06.975Z,58
2018-07-20T03:07:17.102Z,58.29
2018-07-20T03:08:27.123Z,58.1
2018-07-20T03:09:37.266Z,57.9
2018-07-20T03:10:47.627Z,57.81
2018-07-20T03:11:57.831Z,57.9
2018-07-20T03:13:08.105Z,57.9
2018-07-20T03:14:18.237Z,57.9
2018-07-20T03:15:28.447Z,57.71
2018-07-20T03:16:38.592Z,57.9
2018-07-20T03:17:48.755Z,57.9
2018-07-20T03:18:58.714Z,57.71
2018-07-20T03:20:08.890Z,58
2018-07-20T03:21:19.053Z,57.9
2018-07-20T03:22:29.305Z,57.9
2018-07-20T03:23:39.554Z,57.81
2018-07-20T03:24:49.703Z,58
2018-07-20T03:25:59.922Z,57.9
2018-07-20T03:27:10.209Z,57.81
2018-07-20T03:28:20.073Z,58
2018-07-20T03:29:30.213Z,58
2018-07-20T03:30:40.392Z,58.2
2018-07-20T03:31:50.553Z,58.2
2018-07-20T03:33:00.901Z,58.39
2018-07-20T03:34:11.230Z,58.96
2018-07-20T03:35:21.584Z,58.64
2018-07-20T03:36:31.727Z,58.55
2018-07-20T03:37:41.850Z,58.67
2018-07-20T03:38:52.973Z,58.74
2018-07-20T03:40:03.196Z,58.64
2018-07-20T03:41:13.381Z,58.67
2018-07-20T03:42:23.516Z,58.2
2018-07-20T03:43:33.820Z,58.67
2018-07-20T03:44:43.988Z,58.45
2018-07-20T03:45:54.176Z,58.26
2018-07-20T03:47:04.415Z,58.55
2018-07-20T03:48:14.575Z,58.17
2018-07-20T03:49:24.719Z,58.26
2018-07-20T03:50:34.840Z,58.45
2018-07-20T03:51:45.130Z,58.67
2018-07-20T03:52:55.281Z,58.74
2018-07-20T03:54:05.798Z,58.45
2018-07-20T03:55:15.973Z,59.06
2018-07-20T03:56:26.242Z,59.03
2018-07-20T03:57:36.455Z,58.94
2018-07-20T03:58:46.617Z,58.77
2018-07-20T03:59:56.510Z,58.39
2018-07-20T04:01:06.730Z,58.77
2018-07-20T04:02:16.630Z,58.58
2018-07-20T04:03:26.588Z,58.48
2018-07-20T04:04:36.701Z,58.48
2018-07-20T04:05:46.809Z,58.58
2018-07-20T04:06:56.952Z,58.58
2018-07-20T04:08:06.845Z,58.39
2018-07-20T04:09:17.720Z,58.48
2018-07-20T04:10:27.957Z,58.77
2018-07-20T04:11:38.161Z,59.16
2018-07-20T04:12:48.459Z,58.77
2018-07-20T04:13:58.585Z,59.16
2018-07-20T04:15:08.793Z,59.25
2018-07-20T04:16:18.712Z,59.44
2018-07-20T04:17:28.907Z,59.16
2018-07-20T04:18:40.036Z,58.39
2018-07-20T04:19:50.184Z,58.2
2018-07-20T04:21:00.397Z,58.39
2018-07-20T04:22:10.695Z,58.77
2018-07-20T04:23:20.896Z,58.67
2018-07-20T04:24:31.136Z,58.58
2018-07-20T04:25:40.989Z,58.29
2018-07-20T04:26:51.164Z,58.29
2018-07-20T04:28:01.286Z,58.39
2018-07-20T04:29:11.663Z,58.1
2018-07-20T04:30:21.824Z,58.39
2018-07-20T04:31:31.961Z,58.39
2018-07-20T04:32:42.143Z,58.29
2018-07-20T04:33:52.375Z,58.48
2018-07-20T04:35:02.632Z,58.2
2018-07-20T04:36:12.835Z,58.29
2018-07-20T04:37:22.703Z,58.2
2018-07-20T04:38:32.881Z,58.2
2018-07-20T04:39:43.087Z,58
2018-07-20T04:40:53.338Z,58.2
2018-07-20T04:42:03.678Z,58
2018-07-20T04:43:13.631Z,58.2
2018-07-20T04:44:23.776Z,58.32
2018-07-20T04:45:34.048Z,58.48
2018-07-20T04:46:43.991Z,58.32
2018-07-20T04:47:53.763Z,58.32
2018-07-20T04:49:03.938Z,58.32
2018-07-20T04:50:14.079Z,58.22
2018-07-20T04:51:23.947Z,57.93
2018-07-20T04:52:34.102Z,57.84
2018-07-20T04:53:44.251Z,57.93
2018-07-20T04:54:54.383Z,58.22
2018-07-20T04:56:04.625Z,57.84
2018-07-20T04:57:14.802Z,57.75
2018-07-20T04:58:24.672Z,57.45
2018-07-20T04:59:34.860Z,57.75
2018-07-20T05:00:45.181Z,57.36
2018-07-20T05:01:55.484Z,57.48
2018-07-20T05:03:05.673Z,57.68
2018-07-20T05:04:15.779Z,57.48
2018-07-20T05:05:25.918Z,57.39
2018-07-20T05:06:36.304Z,57.29
2018-07-20T05:07:46.439Z,57.29
2018-07-20T05:08:56.884Z,57.48
2018-07-20T05:10:07.004Z,57.39
2018-07-20T05:11:16.877Z,57.6
2018-07-20T05:12:27.385Z,57.51
2018-07-20T05:13:37.538Z,57.22
2018-07-20T05:14:47.720Z,56.84
2018-07-20T05:15:57.961Z,57.22
2018-07-20T05:17:08.129Z,56.58
2018-07-20T05:18:18.346Z,56.87
2018-07-20T05:19:28.683Z,56.67
2018-07-20T05:20:38.877Z,56.96
2018-07-20T05:21:49.123Z,55.52
2018-07-20T05:22:59.005Z,55.65
2018-07-20T05:24:09.427Z,55.55
2018-07-20T05:25:19.382Z,55.55
2018-07-20T05:26:29.519Z,54.97
2018-07-20T05:27:39.883Z,54.97
2018-07-20T05:28:50.095Z,54.42
2018-07-20T05:30:00.217Z,54.42
2018-07-20T05:31:10.408Z,54.71
2018-07-20T05:32:20.676Z,54.52
2018-07-20T05:33:31.913Z,54.22
2018-07-20T05:34:42.049Z,53.84
2018-07-20T05:35:52.383Z,54.32
2018-07-20T05:37:02.503Z,54.35
2018-07-20T05:38:12.712Z,54.06
2018-07-20T05:39:23.127Z,54.44
2018-07-20T05:40:33.258Z,54.83
2018-07-20T05:41:43.479Z,54.61
2018-07-20T05:42:53.831Z,54.61
2018-07-20T05:44:04.482Z,54.9
2018-07-20T05:45:14.962Z,55.38
2018-07-20T05:46:25.369Z,55.38
2018-07-20T05:47:35.282Z,55.02
2018-07-20T05:48:45.421Z,54.8
2018-07-20T05:49:55.568Z,54.93
2018-07-20T05:51:05.716Z,54.74
2018-07-20T05:52:15.878Z,54.74
2018-07-20T05:53:26.020Z,54.64
2018-07-20T05:54:36.378Z,54.35
2018-07-20T05:55:46.490Z,54.42
2018-07-20T05:56:56.725Z,54.61
2018-07-20T05:58:06.872Z,54.64
2018-07-20T05:59:17.224Z,54.61
2018-07-20T06:00:27.084Z,54.52
2018-07-20T06:01:37.449Z,54.13
2018-07-20T06:02:47.815Z,54.35
2018-07-20T06:03:58.054Z,54.44
2018-07-20T06:05:09.073Z,54.25
2018-07-20T06:06:19.213Z,53.77
2018-07-20T06:07:29.333Z,53.58
2018-07-20T06:08:39.464Z,53.77
2018-07-20T06:09:49.617Z,53.67
2018-07-20T06:10:59.569Z,53.67
2018-07-20T06:12:09.737Z,53.48
2018-07-20T06:13:20.076Z,53.77
2018-07-20T06:14:30.224Z,53.58
2018-07-20T06:15:40.348Z,53.48
2018-07-20T06:16:50.166Z,53.58
2018-07-20T06:18:00.286Z,53.48
2018-07-20T06:19:10.495Z,53.58
2018-07-20T06:20:20.680Z,53.67
2018-07-20T06:21:31.011Z,53.29
2018-07-20T06:22:41.246Z,53.29
2018-07-20T06:23:51.618Z,53.19
2018-07-20T06:25:02.147Z,53.31
2018-07-20T06:26:12.318Z,53.13
2018-07-20T06:27:22.485Z,52.93
2018-07-20T06:28:32.684Z,53.03
2018-07-20T06:29:43.065Z,52.64
2018-07-20T06:30:53.257Z,52.45
2018-07-20T06:32:03.452Z,52.55
2018-07-20T06:33:13.633Z,52.64
2018-07-20T06:34:23.879Z,52.95
2018-07-20T06:35:33.772Z,52.57
2018-07-20T06:36:43.899Z,52.47
2018-07-20T06:37:54.047Z,52.37
2018-07-20T06:39:05.178Z,52.19
2018-07-20T06:40:15.321Z,52.28
2018-07-20T06:41:25.124Z,52.09
2018-07-20T06:42:34.997Z,51.8
2018-07-20T06:43:46.145Z,51.89
2018-07-20T06:44:56.283Z,51.7
2018-07-20T06:46:06.509Z,51.61
2018-07-20T06:47:16.635Z,51.89
2018-07-20T06:48:26.870Z,51.8
2018-07-20T06:49:36.768Z,51.82
2018-07-20T06:50:47.201Z,51.34
2018-07-20T06:51:57.348Z,51.34
2018-07-20T06:53:07.514Z,51.53
2018-07-20T06:54:17.692Z,51.34
2018-07-20T06:55:27.875Z,51.15
2018-07-20T06:56:38.112Z,50.96
2018-07-20T06:57:48.260Z,51.25
2018-07-20T06:58:58.442Z,51.34
2018-07-20T07:00:08.355Z,50.98
2018-07-20T07:01:19.455Z,50.31
2018-07-20T07:02:29.638Z,50.4
2018-07-20T07:03:39.900Z,50.01
2018-07-20T07:04:50.049Z,49.65
2018-07-20T07:06:00.279Z,49.73
2018-07-20T07:07:10.506Z,49.95
2018-07-20T07:08:20.747Z,50.04
2018-07-20T07:09:31.084Z,50.04
2018-07-20T07:10:41.384Z,49.46
2018-07-20T07:11:51.529Z,49.75
2018-07-20T07:13:01.400Z,49.46
2018-07-20T07:14:11.519Z,49.37
2018-07-20T07:15:22.114Z,49.27
2018-07-20T07:16:32.362Z,49.07
2018-07-20T07:17:42.550Z,48.9
2018-07-20T07:18:52.787Z,48.9
2018-07-20T07:20:03.049Z,49.19
2018-07-20T07:21:13.191Z,49.1
2018-07-20T07:22:23.405Z,48.79
2018-07-20T07:23:33.784Z,48.9
2018-07-20T07:24:44.134Z,48.81
2018-07-20T07:25:53.870Z,48.61
2018-07-20T07:27:04.461Z,48.13
2018-07-20T07:28:14.605Z,48.03
2018-07-20T07:29:24.783Z,48.03
2018-07-20T07:30:34.942Z,47.77
2018-07-20T07:31:45.129Z,47.48
2018-07-20T07:32:55.277Z,47.58
2018-07-20T07:34:05.423Z,47.58
2018-07-20T07:35:15.545Z,47.38
2018-07-20T07:36:25.739Z,47.02
2018-07-20T07:37:35.877Z,46.83
2018-07-20T07:38:47.063Z,46.73
2018-07-20T07:39:56.939Z,46.44
2018-07-20T07:41:07.111Z,46.05
2018-07-20T07:42:17.479Z,45.66
2018-07-20T07:43:27.406Z,45.57
2018-07-20T07:44:37.304Z,45.59
2018-07-20T07:45:47.451Z,45.68
2018-07-20T07:46:57.652Z,45.1
2018-07-20T07:48:07.828Z,44.91
2018-07-20T07:49:18.147Z,44.74
2018-07-20T07:50:28.546Z,44.64
2018-07-20T07:51:38.742Z,44.74
2018-07-20T07:52:48.907Z,44.64
2018-07-20T07:53:59.036Z,44.76
2018-07-20T07:55:09.318Z,44.09
2018-07-20T07:56:19.537Z,43.99
2018-07-20T07:57:29.683Z,43.89
2018-07-20T07:58:39.873Z,44.09
2018-07-20T07:59:50.160Z,44.09
2018-07-20T08:01:00.151Z,43.79
2018-07-20T08:02:10.624Z,44.27
2018-07-20T08:03:20.795Z,43.99
2018-07-20T08:04:31.155Z,44.01
2018-07-20T08:05:41.342Z,43.72
2018-07-20T08:06:51.568Z,43.72
2018-07-20T08:08:01.466Z,43.82
2018-07-20T08:09:11.591Z,44.49
2018-07-20T08:10:22.776Z,44.4
2018-07-20T08:11:33.330Z,44.01
2018-07-20T08:12:43.527Z,43.82
2018-07-20T08:13:53.755Z,44.01
2018-07-20T08:15:03.953Z,44.1
2018-07-20T08:16:14.244Z,44.01
2018-07-20T08:17:24.382Z,44.1
2018-07-20T08:18:34.371Z,44.1
2018-07-20T08:19:44.722Z,44.78
2018-07-20T08:20:54.978Z,44.59
2018-07-20T08:22:05.296Z,44.59
2018-07-20T08:23:15.181Z,44.68
2018-07-20T08:24:25.183Z,44.59
2018-07-20T08:25:35.423Z,44.2
2018-07-20T08:26:45.548Z,44.23
2018-07-20T08:27:55.706Z,44.13
2018-07-20T08:29:05.839Z,44.13
2018-07-20T08:30:15.981Z,44.03
2018-07-20T08:31:26.344Z,44.05
2018-07-20T08:32:36.705Z,44.15
2018-07-20T08:33:46.975Z,44.07
2018-07-20T08:34:57.120Z,44.27
2018-07-20T08:36:07.459Z,43.98
2018-07-20T08:37:17.649Z,44.27
2018-07-20T08:38:27.778Z,44.38
2018-07-20T08:39:38.045Z,43.61
2018-07-20T08:40:47.924Z,43.34
2018-07-20T08:41:59.044Z,43.16
2018-07-20T08:43:09.415Z,43.16
2018-07-20T08:44:19.629Z,42.95
2018-07-20T08:45:29.791Z,43.44
2018-07-20T08:46:40.136Z,43.44
2018-07-20T08:47:50.345Z,43.05
2018-07-20T08:49:00.496Z,42.95
2018-07-20T08:50:10.646Z,42.85
2018-07-20T08:51:20.535Z,42.46
2018-07-20T08:52:30.311Z,42.76
2018-07-20T08:53:40.486Z,42.54
2018-07-20T08:54:50.435Z,43.05
2018-07-20T08:56:01.600Z,42.85
2018-07-20T08:57:11.277Z,42.68
2018-07-20T08:58:21.653Z,42.58
2018-07-20T08:59:31.781Z,42
2018-07-20T09:00:41.981Z,41.61
2018-07-20T09:01:51.993Z,41.83
2018-07-20T09:03:02.221Z,41.53
2018-07-20T09:04:12.501Z,41.34
2018-07-20T09:05:22.627Z,40.97
2018-07-20T09:06:32.503Z,40.68
2018-07-20T09:07:42.659Z,40.78
2018-07-20T09:08:52.181Z,40.03
2018-07-20T09:10:03.424Z,39.94
2018-07-20T09:11:13.623Z,39.76
2018-07-20T09:12:23.909Z,39
2018-07-20T09:13:34.229Z,38.22
2018-07-20T09:14:45.016Z,37.93
2018-07-20T09:15:55.153Z,38.02
2018-07-20T09:17:05.573Z,37.54
2018-07-20T09:18:16.007Z,37.63
2018-07-20T09:19:26.404Z,37.52
2018-07-20T09:20:36.617Z,37.63
2018-07-20T09:21:47.168Z,37.45
2018-07-20T09:22:57.311Z,37.07
2018-07-20T09:24:07.514Z,36.88
2018-07-20T09:25:17.679Z,36.68
2018-07-20T09:26:27.854Z,36.88
2018-07-20T09:27:38.019Z,36.7
2018-07-20T09:28:48.156Z,36.11
2018-07-20T09:29:58.946Z,35.82
2018-07-20T09:31:09.237Z,35.82
2018-07-20T09:32:19.592Z,35.82
2018-07-20T09:33:29.843Z,35.55
2018-07-20T09:34:40.282Z,34.67
2018-07-20T09:35:50.631Z,34.48
2018-07-20T09:37:00.889Z,34.39
2018-07-20T09:38:11.277Z,33.72
2018-07-20T09:39:21.423Z,33.82
2018-07-20T09:40:31.319Z,33.84
2018-07-20T09:41:42.463Z,33.45
2018-07-20T09:42:52.342Z,33.25
2018-07-20T09:44:02.655Z,33.34
2018-07-20T09:45:12.823Z,32.86
2018-07-20T09:46:23.052Z,33.25
2018-07-20T09:47:33.367Z,32.56
2018-07-20T09:48:43.591Z,32.35
2018-07-20T09:49:53.912Z,31.18
2018-07-20T09:51:04.168Z,31.38
2018-07-20T09:52:14.364Z,31.16
2018-07-20T09:53:24.563Z,30.77
2018-07-20T09:54:34.824Z,30.66
2018-07-20T09:55:44.964Z,30.96
2018-07-20T09:56:55.196Z,30.96
2018-07-20T09:58:05.201Z,30.48
2018-07-20T09:59:14.829Z,29.81
2018-07-20T10:00:25.107Z,29.73
2018-07-20T10:01:35.045Z,29.63
2018-07-20T10:02:44.985Z,29.42
2018-07-20T10:03:55.175Z,29.32
2018-07-20T10:05:05.367Z,29.52
2018-07-20T10:06:15.665Z,29.7
2018-07-20T10:07:25.896Z,29.5
2018-07-20T10:08:36.149Z,29.2
2018-07-20T10:09:46.301Z,29.47
2018-07-20T10:10:56.460Z,29.46
2018-07-20T10:12:06.972Z,29.83
2018-07-20T10:13:17.266Z,29.53
2018-07-20T10:14:27.552Z,29.82
2018-07-20T10:15:37.770Z,30.19
2018-07-20T10:16:47.690Z,30.39
2018-07-20T10:17:58.242Z,30.58
2018-07-20T10:19:08.510Z,30.49
2018-07-20T10:20:19.220Z,30.49
2018-07-20T10:21:29.417Z,30.29
2018-07-20T10:22:39.569Z,30.1
2018-07-20T10:23:49.477Z,29.63
2018-07-20T10:24:59.705Z,28.67
2018-07-20T10:26:09.874Z,28.4
2018-07-20T10:27:20.081Z,27.73
2018-07-20T10:28:30.837Z,26.59
2018-07-20T10:29:41.000Z,26.49
2018-07-20T10:30:50.921Z,26.68
2018-07-20T10:32:33.008Z,26.89
2018-07-20T10:33:43.217Z,26.89
2018-07-20T10:34:53.193Z,26.4
2018-07-20T10:36:03.359Z,26.59
2018-07-20T10:37:13.525Z,26.59
2018-07-20T10:38:24.381Z,26.78
2018-07-20T10:39:34.628Z,26.1
2018-07-20T10:40:44.805Z,25.72
2018-07-20T10:41:54.979Z,25.83
2018-07-20T10:43:05.474Z,25.26
2018-07-20T10:44:15.526Z,24.87
2018-07-20T10:45:25.685Z,24.88
2018-07-20T10:46:35.826Z,24.9
2018-07-20T10:47:46.077Z,24.22
2018-07-20T10:48:57.257Z,23.83
2018-07-20T10:50:08.219Z,23.25
2018-07-20T10:51:20.966Z,21.9
2018-07-20T10:52:31.278Z,21.61
2018-07-20T10:54:52.216Z,22.01
2018-07-20T10:56:02.425Z,21.63
2018-07-20T10:57:12.627Z,21.63
2018-07-20T10:59:37.250Z,21.7
2018-07-20T11:00:48.039Z,21.7
2018-07-20T11:03:17.267Z,21.59
2018-07-20T11:04:29.990Z,21.69
2018-07-20T11:05:40.168Z,21.4
2018-07-20T11:06:52.943Z,21.02
2018-07-20T11:08:03.255Z,21.31
2018-07-20T11:09:14.120Z,21.11
2018-07-20T11:10:26.596Z,20.91
2018-07-20T11:11:37.843Z,20.43
2018-07-20T11:12:48.146Z,21.01
2018-07-20T11:13:58.317Z,20.9
2018-07-20T11:15:08.783Z,20.62
2018-07-20T11:16:19.207Z,20.91
2018-07-20T11:17:29.358Z,20.42
2018-07-20T11:18:39.544Z,20.72
2018-07-20T11:21:04.703Z,20.43
2018-07-20T11:22:14.910Z,20.33
2018-07-20T11:23:26.868Z,20.04
2018-07-20T11:24:37.493Z,20.04
2018-07-20T11:25:48.906Z,19.95
2018-07-20T11:28:23.184Z,20.25
2018-07-20T11:29:34.520Z,20.06
2018-07-20T11:30:44.762Z,20.06
2018-07-20T11:31:54.921Z,19.38
2018-07-20T11:33:05.319Z,19.09
2018-07-20T11:34:16.326Z,18.02
2018-07-20T11:35:26.544Z,18.21
2018-07-20T11:36:36.720Z,18.6
2018-07-20T11:37:47.208Z,18.7
2018-07-20T11:38:57.118Z,18.6
2018-07-20T11:40:07.468Z,18.98
2018-07-20T11:41:17.652Z,19.38
2018-07-20T11:42:27.567Z,19.18
2018-07-20T11:43:37.103Z,19.38
2018-07-20T11:44:47.329Z,19.38
2018-07-20T11:45:58.275Z,19.19
2018-07-20T11:47:08.459Z,19.09
2018-07-20T11:48:18.623Z,19.4
2018-07-20T11:49:28.777Z,19.58
2018-07-20T11:50:39.057Z,20.07
2018-07-20T11:51:49.254Z,20.46
2018-07-20T11:52:59.166Z,20.36
2018-07-20T11:54:09.387Z,20.85
2018-07-20T11:55:19.685Z,20.35
2018-07-20T11:56:29.912Z,20.15
2018-07-20T11:57:39.876Z,20.75
2018-07-20T11:58:49.748Z,20.73
2018-07-20T11:59:59.908Z,20.35
2018-07-20T12:01:10.103Z,20.25
2018-07-20T12:02:20.413Z,19.86
2018-07-20T12:03:30.564Z,20.15
2018-07-20T12:04:40.487Z,20.06
2018-07-20T12:06:23.298Z,20.24
2018-07-20T12:07:33.448Z,20.73
2018-07-20T12:08:43.620Z,20.75
2018-07-20T12:09:54.791Z,20.84
2018-07-20T12:11:04.965Z,20.93
2018-07-20T12:12:16.118Z,20.73
2018-07-20T12:13:25.898Z,20.14
2018-07-20T12:14:36.117Z,20.34
2018-07-20T12:15:46.443Z,20.24
2018-07-20T12:16:56.611Z,20.73
2018-07-20T12:18:06.791Z,20.83
2018-07-20T12:19:17.007Z,20.75
2018-07-20T12:20:26.933Z,20.45
2018-07-20T12:21:37.097Z,19.96
2018-07-20T12:22:47.260Z,19.87
2018-07-20T12:23:57.450Z,20.06
2018-07-20T12:25:07.344Z,20.15
2018-07-20T12:26:17.775Z,20.34
2018-07-20T12:27:28.043Z,20.62
2018-07-20T12:28:38.203Z,20.91
2018-07-20T12:29:48.390Z,21.01
2018-07-20T12:30:58.348Z,21.19
2018-07-20T12:32:08.438Z,21.49
2018-07-20T12:33:18.688Z,21
2018-07-20T12:34:28.849Z,21.49
2018-07-20T12:35:38.668Z,21.29
2018-07-20T12:36:48.770Z,20.9
2018-07-20T12:37:59.061Z,21
2018-07-20T12:39:08.983Z,20.61
2018-07-20T12:40:19.372Z,20.61
2018-07-20T12:41:29.289Z,20.8
2018-07-20T12:42:39.659Z,20.8
2018-07-20T12:43:49.976Z,21.29
2018-07-20T12:45:00.141Z,20.99
2018-07-20T12:46:10.348Z,21.09
2018-07-20T12:47:20.540Z,21.39
2018-07-20T12:48:30.600Z,21.28
2018-07-20T12:49:40.847Z,21.38
2018-07-20T12:50:51.077Z,21.58
2018-07-20T12:52:01.312Z,21.67
2018-07-20T12:53:11.217Z,21.48
2018-07-20T12:54:21.396Z,21.66
2018-07-20T12:55:31.761Z,22.06
2018-07-20T12:56:42.072Z,21.76
2018-07-20T12:57:52.301Z,21.86
2018-07-20T12:59:02.759Z,22.05
2018-07-20T13:00:13.051Z,22.14
2018-07-20T13:01:23.013Z,22.03
2018-07-20T13:02:32.978Z,22.81
2018-07-20T13:03:42.931Z,22.62
2018-07-20T13:04:52.837Z,22.62
2018-07-20T13:06:03.051Z,22.72
2018-07-20T13:07:13.224Z,22.71
2018-07-20T13:08:23.408Z,22.81
2018-07-20T13:09:33.586Z,22.91
2018-07-20T13:10:43.978Z,23.3
2018-07-20T13:11:54.298Z,23
2018-07-20T13:13:04.961Z,22.89
2018-07-20T13:14:15.136Z,23.37
2018-07-20T13:15:25.316Z,23.37
2018-07-20T13:16:35.233Z,23.47
2018-07-20T13:17:45.434Z,23.47
2018-07-20T13:18:55.872Z,23.28
2018-07-20T13:20:05.538Z,22.99
2018-07-20T13:21:15.723Z,22.99
2018-07-20T13:22:25.942Z,22.99
2018-07-20T13:23:36.140Z,23
2018-07-20T13:24:46.454Z,23.1
2018-07-20T13:25:56.768Z,22.81
2018-07-20T13:27:06.954Z,22.61
2018-07-20T13:28:17.157Z,22.81
2018-07-20T13:29:28.155Z,22.71
2018-07-20T13:30:38.332Z,22.81
2018-07-20T13:31:48.524Z,22.52
2018-07-20T13:32:58.672Z,22.81
2018-07-20T13:34:08.676Z,22.91
2018-07-20T13:35:18.619Z,23.39
2018-07-20T13:36:28.796Z,23.39
2018-07-20T13:37:39.003Z,23.3
2018-07-20T13:38:49.214Z,23.3
2018-07-20T13:39:59.390Z,23.1
2018-07-20T13:41:09.620Z,23.2
2018-07-20T13:42:19.819Z,23.1
2018-07-20T13:43:30.109Z,22.8
2018-07-20T13:44:40.496Z,22.89
2018-07-20T13:45:50.503Z,22.8
2018-07-20T13:47:00.740Z,22.89
2018-07-20T13:48:10.775Z,23.38
2018-07-20T13:49:20.661Z,23.66
2018-07-20T13:50:30.817Z,23.76
2018-07-20T13:51:40.951Z,23.96
2018-07-20T13:52:51.424Z,23.66
2018-07-20T13:54:02.138Z,23.18
2018-07-20T13:55:12.313Z,23.57
2018-07-20T13:56:22.205Z,23.47
2018-07-20T13:57:32.363Z,23.66
2018-07-20T13:58:42.739Z,23.86
2018-07-20T13:59:52.951Z,23.86
2018-07-20T14:01:03.150Z,23.86
2018-07-20T14:02:13.338Z,23.76
2018-07-20T14:03:23.497Z,23.85
2018-07-20T14:04:33.887Z,23.85
2018-07-20T14:05:44.158Z,23.75
2018-07-20T14:06:54.163Z,23.94
2018-07-20T14:08:04.350Z,24.82
2018-07-20T14:09:14.547Z,24.53
2018-07-20T14:10:24.676Z,24.33
2018-07-20T14:11:34.829Z,24.33
2018-07-20T14:12:45.003Z,24.33
2018-07-20T14:13:54.647Z,23.85
2018-07-20T14:15:04.565Z,23.94
2018-07-20T14:16:14.813Z,23.65
2018-07-20T14:17:25.011Z,23.94
2018-07-20T14:18:35.166Z,23.75
2018-07-20T14:19:45.480Z,23.75
2018-07-20T14:20:55.754Z,24.03
2018-07-20T14:22:05.919Z,23.75
2018-07-20T14:23:15.828Z,24.62
2018-07-20T14:24:27.642Z,24.52
2018-07-20T14:25:37.946Z,24.91
2018-07-20T14:26:48.128Z,24.52
2018-07-20T14:27:58.473Z,24.52
2018-07-20T14:29:08.618Z,24.81
2018-07-20T14:30:18.862Z,24.62
2018-07-20T14:31:28.958Z,24.42
2018-07-20T14:32:39.594Z,24.91
2018-07-20T14:33:49.798Z,24.52
2018-07-20T14:34:59.943Z,24.61
2018-07-20T14:36:10.113Z,24.9
2018-07-20T14:37:20.315Z,24.51
2018-07-20T14:38:30.483Z,24.71
2018-07-20T14:39:40.746Z,24.61
2018-07-20T14:40:50.984Z,24.61
2018-07-20T14:42:01.242Z,24.6
2018-07-20T14:43:11.462Z,24.4
2018-07-20T14:44:21.351Z,24.4
2018-07-20T14:45:31.505Z,24.69
2018-07-20T14:46:41.419Z,25
2018-07-20T14:47:51.670Z,24.79
2018-07-20T14:49:01.973Z,24.89
2018-07-20T14:50:13.140Z,25.08
2018-07-20T14:51:23.453Z,25.18
2018-07-20T14:52:33.848Z,25.18
2018-07-20T14:53:43.994Z,24.89
2018-07-20T14:54:54.190Z,25
2018-07-20T14:56:04.572Z,24.6
2018-07-20T14:57:14.741Z,25.1
2018-07-20T14:58:24.970Z,24.99
2018-07-20T14:59:34.914Z,24.89
2018-07-20T15:00:45.092Z,25.18
2018-07-20T15:01:55.321Z,24.4
2018-07-20T15:03:05.587Z,24.41
2018-07-20T15:04:15.819Z,24.51
2018-07-20T15:05:26.012Z,24.89
2018-07-20T15:06:36.285Z,24.89
2018-07-20T15:07:46.526Z,24.99
2018-07-20T15:08:56.715Z,25.18
2018-07-20T15:10:06.367Z,24.79
2018-07-20T15:11:16.653Z,24.79
2018-07-20T15:12:26.825Z,25.08
2018-07-20T15:13:38.010Z,25.08
2018-07-20T15:14:48.269Z,25.08
2018-07-20T15:15:58.514Z,25.18
2018-07-20T15:17:08.709Z,25.08